sensor_id;sensor_type;location;lat;lon;timestamp;P1;durP1;ratioP1;P2;durP2;ratioP2
51616;SDS011;37697;52.588;13.394;2024-03-29T00:03:57;3.00;;;0.50;;
51616;SDS011;37697;52.588;13.394;2024-03-29T00:09:22;2.20;;;0.80;;
51616;SDS011;37697;52.588;13.394;2024-03-29T00:14:40;1.60;;;0.70;;
51616;SDS011;37697;52.588;13.394;2024-03-29T00:20:06;3.40;;;0.60;;
51616;SDS011;37697;52.588;13.394;2024-03-29T00:25:15;2.70;;;0.60;;
51616;SDS011;37697;52.588;13.394;2024-03-29T00:30:31;1.60;;;0.60;;
51616;SDS011;37697;52.588;13.394;2024-03-29T00:35:56;2.00;;;0.50;;
51616;SDS011;37697;52.588;13.394;2024-03-29T00:41:05;1.30;;;0.50;;
51616;SDS011;37697;52.588;13.394;2024-03-29T00:46:30;1.30;;;0.50;;
51616;SDS011;37697;52.588;13.394;2024-03-29T00:51:56;0.90;;;0.40;;
51616;SDS011;37697;52.588;13.394;2024-03-29T00:57:11;2.30;;;0.50;;
51616;SDS011;37697;52.588;13.394;2024-03-29T01:02:26;1.00;;;0.40;;
51616;SDS011;37697;52.588;13.394;2024-03-29T01:07:52;1.60;;;0.60;;
51616;SDS011;37697;52.588;13.394;2024-03-29T01:13:16;2.00;;;0.70;;
51616;SDS011;37697;52.588;13.394;2024-03-29T01:18:31;1.60;;;0.70;;
51616;SDS011;37697;52.588;13.394;2024-03-29T01:23:50;1.40;;;0.50;;
51616;SDS011;37697;52.588;13.394;2024-03-29T01:29:15;2.20;;;0.80;;
51616;SDS011;37697;52.588;13.394;2024-03-29T01:34:41;1.70;;;0.80;;
51616;SDS011;37697;52.588;13.394;2024-03-29T01:40:05;2.80;;;0.80;;
51616;SDS011;37697;52.588;13.394;2024-03-29T01:45:31;5.10;;;1.00;;
51616;SDS011;37697;52.588;13.394;2024-03-29T01:50:58;2.60;;;0.70;;
51616;SDS011;37697;52.588;13.394;2024-03-29T01:56:12;2.30;;;0.70;;
51616;SDS011;37697;52.588;13.394;2024-03-29T02:01:39;3.00;;;1.00;;
51616;SDS011;37697;52.588;13.394;2024-03-29T02:07:05;1.60;;;0.60;;
51616;SDS011;37697;52.588;13.394;2024-03-29T02:12:31;2.80;;;1.00;;
51616;SDS011;37697;52.588;13.394;2024-03-29T02:17:56;2.00;;;0.90;;
51616;SDS011;37697;52.588;13.394;2024-03-29T02:23:26;1.50;;;1.00;;
51616;SDS011;37697;52.588;13.394;2024-03-29T02:28:53;2.20;;;0.90;;
51616;SDS011;37697;52.588;13.394;2024-03-29T02:34:18;2.30;;;0.90;;
51616;SDS011;37697;52.588;13.394;2024-03-29T02:39:43;2.60;;;1.20;;
51616;SDS011;37697;52.588;13.394;2024-03-29T02:45:09;4.10;;;1.20;;
51616;SDS011;37697;52.588;13.394;2024-03-29T02:50:34;2.50;;;1.00;;
51616;SDS011;37697;52.588;13.394;2024-03-29T02:56:00;4.20;;;1.30;;
51616;SDS011;37697;52.588;13.394;2024-03-29T03:01:25;4.20;;;1.20;;
51616;SDS011;37697;52.588;13.394;2024-03-29T03:06:50;3.00;;;1.10;;
51616;SDS011;37697;52.588;13.394;2024-03-29T03:12:15;2.90;;;1.10;;
51616;SDS011;37697;52.588;13.394;2024-03-29T03:17:41;2.20;;;1.00;;
51616;SDS011;37697;52.588;13.394;2024-03-29T03:23:06;3.90;;;1.30;;
51616;SDS011;37697;52.588;13.394;2024-03-29T03:28:25;4.90;;;1.20;;
51616;SDS011;37697;52.588;13.394;2024-03-29T03:33:51;3.30;;;1.30;;
51616;SDS011;37697;52.588;13.394;2024-03-29T03:39:16;2.20;;;1.20;;
51616;SDS011;37697;52.588;13.394;2024-03-29T03:44:34;2.70;;;1.30;;
51616;SDS011;37697;52.588;13.394;2024-03-29T03:49:59;3.80;;;1.50;;
51616;SDS011;37697;52.588;13.394;2024-03-29T03:55:24;2.60;;;1.40;;
51616;SDS011;37697;52.588;13.394;2024-03-29T04:00:42;3.80;;;1.30;;
51616;SDS011;37697;52.588;13.394;2024-03-29T04:06:03;3.70;;;1.60;;
51616;SDS011;37697;52.588;13.394;2024-03-29T04:11:29;3.20;;;1.50;;
51616;SDS011;37697;52.588;13.394;2024-03-29T04:16:55;3.00;;;1.20;;
51616;SDS011;37697;52.588;13.394;2024-03-29T04:22:20;3.40;;;1.30;;
51616;SDS011;37697;52.588;13.394;2024-03-29T04:27:36;2.50;;;1.20;;
51616;SDS011;37697;52.588;13.394;2024-03-29T04:32:54;3.60;;;1.70;;
51616;SDS011;37697;52.588;13.394;2024-03-29T04:38:11;4.20;;;1.20;;
51616;SDS011;37697;52.588;13.394;2024-03-29T04:43:27;4.10;;;1.20;;
51616;SDS011;37697;52.588;13.394;2024-03-29T04:48:53;2.80;;;1.00;;
51616;SDS011;37697;52.588;13.394;2024-03-29T04:54:03;2.10;;;1.20;;
51616;SDS011;37697;52.588;13.394;2024-03-29T04:59:23;1.40;;;0.90;;
51616;SDS011;37697;52.588;13.394;2024-03-29T05:04:48;3.70;;;1.30;;
51616;SDS011;37697;52.588;13.394;2024-03-29T05:10:08;3.80;;;1.80;;
51616;SDS011;37697;52.588;13.394;2024-03-29T05:15:18;2.50;;;1.10;;
51616;SDS011;37697;52.588;13.394;2024-03-29T05:20:44;2.60;;;1.10;;
51616;SDS011;37697;52.588;13.394;2024-03-29T05:26:12;5.40;;;1.20;;
51616;SDS011;37697;52.588;13.394;2024-03-29T05:31:37;2.20;;;0.90;;
51616;SDS011;37697;52.588;13.394;2024-03-29T05:36:55;2.30;;;1.00;;
51616;SDS011;37697;52.588;13.394;2024-03-29T05:42:13;2.10;;;0.90;;
51616;SDS011;37697;52.588;13.394;2024-03-29T05:47:38;3.90;;;1.10;;
51616;SDS011;37697;52.588;13.394;2024-03-29T05:53:03;4.40;;;1.30;;
51616;SDS011;37697;52.588;13.394;2024-03-29T05:58:29;2.60;;;0.90;;
51616;SDS011;37697;52.588;13.394;2024-03-29T06:03:54;3.20;;;1.10;;
51616;SDS011;37697;52.588;13.394;2024-03-29T06:09:19;2.10;;;0.90;;
51616;SDS011;37697;52.588;13.394;2024-03-29T06:14:45;3.20;;;1.10;;
51616;SDS011;37697;52.588;13.394;2024-03-29T06:20:08;3.60;;;1.30;;
51616;SDS011;37697;52.588;13.394;2024-03-29T06:25:34;2.40;;;1.30;;
51616;SDS011;37697;52.588;13.394;2024-03-29T06:30:59;2.60;;;1.00;;
51616;SDS011;37697;52.588;13.394;2024-03-29T06:36:24;2.90;;;0.80;;
51616;SDS011;37697;52.588;13.394;2024-03-29T06:41:50;3.00;;;1.40;;
51616;SDS011;37697;52.588;13.394;2024-03-29T06:47:15;3.00;;;0.90;;
51616;SDS011;37697;52.588;13.394;2024-03-29T06:52:41;3.10;;;1.00;;
51616;SDS011;37697;52.588;13.394;2024-03-29T06:58:06;4.20;;;0.90;;
51616;SDS011;37697;52.588;13.394;2024-03-29T07:03:13;2.30;;;0.90;;
51616;SDS011;37697;52.588;13.394;2024-03-29T07:08:22;2.90;;;0.90;;
51616;SDS011;37697;52.588;13.394;2024-03-29T07:13:47;1.40;;;0.70;;
51616;SDS011;37697;52.588;13.394;2024-03-29T07:19:12;3.20;;;0.90;;
51616;SDS011;37697;52.588;13.394;2024-03-29T07:24:37;4.20;;;0.80;;
51616;SDS011;37697;52.588;13.394;2024-03-29T07:30:03;1.90;;;0.70;;
51616;SDS011;37697;52.588;13.394;2024-03-29T07:35:29;3.50;;;1.10;;
51616;SDS011;37697;52.588;13.394;2024-03-29T07:40:44;2.70;;;0.90;;
51616;SDS011;37697;52.588;13.394;2024-03-29T07:46:03;2.40;;;0.80;;
51616;SDS011;37697;52.588;13.394;2024-03-29T07:51:28;3.80;;;0.80;;
51616;SDS011;37697;52.588;13.394;2024-03-29T07:56:54;2.30;;;0.80;;
51616;SDS011;37697;52.588;13.394;2024-03-29T08:02:19;3.20;;;0.70;;
51616;SDS011;37697;52.588;13.394;2024-03-29T08:07:44;3.50;;;1.00;;
51616;SDS011;37697;52.588;13.394;2024-03-29T08:13:10;4.20;;;1.10;;
51616;SDS011;37697;52.588;13.394;2024-03-29T08:18:35;2.90;;;1.10;;
51616;SDS011;37697;52.588;13.394;2024-03-29T08:24:00;1.40;;;0.60;;
51616;SDS011;37697;52.588;13.394;2024-03-29T08:29:26;2.90;;;1.00;;
51616;SDS011;37697;52.588;13.394;2024-03-29T08:34:51;2.60;;;1.00;;
51616;SDS011;37697;52.588;13.394;2024-03-29T08:40:07;2.40;;;0.90;;
51616;SDS011;37697;52.588;13.394;2024-03-29T08:45:33;2.60;;;0.70;;
51616;SDS011;37697;52.588;13.394;2024-03-29T08:50:58;3.20;;;1.00;;
51616;SDS011;37697;52.588;13.394;2024-03-29T08:56:24;2.90;;;0.80;;
51616;SDS011;37697;52.588;13.394;2024-03-29T09:01:49;3.70;;;1.00;;
51616;SDS011;37697;52.588;13.394;2024-03-29T09:07:14;2.90;;;1.00;;
51616;SDS011;37697;52.588;13.394;2024-03-29T09:12:33;2.10;;;0.90;;
51616;SDS011;37697;52.588;13.394;2024-03-29T09:17:41;3.20;;;0.80;;
51616;SDS011;37697;52.588;13.394;2024-03-29T09:23:07;4.60;;;0.90;;
51616;SDS011;37697;52.588;13.394;2024-03-29T09:28:23;3.30;;;1.10;;
51616;SDS011;37697;52.588;13.394;2024-03-29T09:33:48;2.20;;;1.20;;
51616;SDS011;37697;52.588;13.394;2024-03-29T09:39:00;2.90;;;1.00;;
51616;SDS011;37697;52.588;13.394;2024-03-29T09:44:26;4.30;;;1.60;;
51616;SDS011;37697;52.588;13.394;2024-03-29T09:49:37;2.90;;;1.20;;
51616;SDS011;37697;52.588;13.394;2024-03-29T09:54:54;2.50;;;1.00;;
51616;SDS011;37697;52.588;13.394;2024-03-29T10:00:12;1.60;;;0.70;;
51616;SDS011;37697;52.588;13.394;2024-03-29T10:10:31;2.90;;;0.90;;
51616;SDS011;37697;52.588;13.394;2024-03-29T10:15:39;2.60;;;0.90;;
51616;SDS011;37697;52.588;13.394;2024-03-29T10:20:59;2.50;;;0.70;;
51616;SDS011;37697;52.588;13.394;2024-03-29T10:31:48;2.80;;;0.90;;
51616;SDS011;37697;52.588;13.394;2024-03-29T10:37:14;1.80;;;0.80;;
51616;SDS011;37697;52.588;13.394;2024-03-29T10:42:41;2.10;;;0.80;;
51616;SDS011;37697;52.588;13.394;2024-03-29T10:48:08;1.90;;;0.70;;
51616;SDS011;37697;52.588;13.394;2024-03-29T10:53:34;1.70;;;0.70;;
51616;SDS011;37697;52.588;13.394;2024-03-29T10:58:56;2.90;;;0.60;;
51616;SDS011;37697;52.588;13.394;2024-03-29T11:04:22;1.70;;;0.90;;
51616;SDS011;37697;52.588;13.394;2024-03-29T11:09:55;1.50;;;0.70;;
51616;SDS011;37697;52.588;13.394;2024-03-29T11:15:27;1.50;;;0.70;;
51616;SDS011;37697;52.588;13.394;2024-03-29T11:20:54;2.90;;;1.10;;
51616;SDS011;37697;52.588;13.394;2024-03-29T11:26:10;2.00;;;0.80;;
51616;SDS011;37697;52.588;13.394;2024-03-29T11:31:21;3.50;;;1.00;;
51616;SDS011;37697;52.588;13.394;2024-03-29T11:36:30;3.00;;;0.70;;
51616;SDS011;37697;52.588;13.394;2024-03-29T11:41:55;1.80;;;0.80;;
51616;SDS011;37697;52.588;13.394;2024-03-29T11:47:09;2.80;;;0.80;;
51616;SDS011;37697;52.588;13.394;2024-03-29T11:52:27;1.40;;;0.70;;
51616;SDS011;37697;52.588;13.394;2024-03-29T11:57:52;2.30;;;0.70;;
51616;SDS011;37697;52.588;13.394;2024-03-29T12:02:59;1.30;;;0.60;;
51616;SDS011;37697;52.588;13.394;2024-03-29T12:08:16;1.80;;;0.70;;
51616;SDS011;37697;52.588;13.394;2024-03-29T12:13:32;2.00;;;0.80;;
51616;SDS011;37697;52.588;13.394;2024-03-29T12:18:38;3.20;;;0.80;;
51616;SDS011;37697;52.588;13.394;2024-03-29T12:24:03;1.50;;;0.70;;
51616;SDS011;37697;52.588;13.394;2024-03-29T12:29:29;2.80;;;0.90;;
51616;SDS011;37697;52.588;13.394;2024-03-29T12:34:55;1.70;;;0.80;;
51616;SDS011;37697;52.588;13.394;2024-03-29T12:40:32;2.50;;;0.80;;
51616;SDS011;37697;52.588;13.394;2024-03-29T12:46:00;1.50;;;0.80;;
51616;SDS011;37697;52.588;13.394;2024-03-29T12:51:26;3.30;;;0.90;;
51616;SDS011;37697;52.588;13.394;2024-03-29T12:56:52;3.00;;;0.90;;
51616;SDS011;37697;52.588;13.394;2024-03-29T13:02:17;4.70;;;1.20;;
51616;SDS011;37697;52.588;13.394;2024-03-29T13:07:43;3.40;;;1.10;;
51616;SDS011;37697;52.588;13.394;2024-03-29T13:13:08;4.20;;;1.40;;
51616;SDS011;37697;52.588;13.394;2024-03-29T13:18:34;3.10;;;1.00;;
51616;SDS011;37697;52.588;13.394;2024-03-29T13:23:59;2.80;;;1.00;;
51616;SDS011;37697;52.588;13.394;2024-03-29T13:29:24;2.60;;;1.10;;
51616;SDS011;37697;52.588;13.394;2024-03-29T13:34:49;2.90;;;1.20;;
51616;SDS011;37697;52.588;13.394;2024-03-29T13:40:08;4.30;;;1.00;;
51616;SDS011;37697;52.588;13.394;2024-03-29T13:45:34;1.60;;;0.80;;
51616;SDS011;37697;52.588;13.394;2024-03-29T13:51:00;1.50;;;0.80;;
51616;SDS011;37697;52.588;13.394;2024-03-29T13:56:07;1.50;;;0.60;;
51616;SDS011;37697;52.588;13.394;2024-03-29T14:01:35;2.70;;;0.80;;
51616;SDS011;37697;52.588;13.394;2024-03-29T14:07:00;4.40;;;0.80;;
51616;SDS011;37697;52.588;13.394;2024-03-29T14:12:26;4.60;;;1.80;;
51616;SDS011;37697;52.588;13.394;2024-03-29T14:17:51;1.30;;;0.60;;
51616;SDS011;37697;52.588;13.394;2024-03-29T14:23:17;2.30;;;0.80;;
51616;SDS011;37697;52.588;13.394;2024-03-29T14:28:26;2.70;;;1.10;;
51616;SDS011;37697;52.588;13.394;2024-03-29T14:33:33;2.50;;;1.00;;
51616;SDS011;37697;52.588;13.394;2024-03-29T14:38:59;2.20;;;0.70;;
51616;SDS011;37697;52.588;13.394;2024-03-29T14:44:15;1.90;;;0.90;;
51616;SDS011;37697;52.588;13.394;2024-03-29T14:49:40;1.30;;;0.80;;
51616;SDS011;37697;52.588;13.394;2024-03-29T14:55:06;2.20;;;0.80;;
51616;SDS011;37697;52.588;13.394;2024-03-29T15:00:24;3.80;;;1.00;;
51616;SDS011;37697;52.588;13.394;2024-03-29T15:05:49;1.60;;;0.70;;
51616;SDS011;37697;52.588;13.394;2024-03-29T15:10:58;1.20;;;0.80;;
51616;SDS011;37697;52.588;13.394;2024-03-29T15:16:12;1.20;;;0.70;;
51616;SDS011;37697;52.588;13.394;2024-03-29T15:21:31;1.20;;;0.60;;
51616;SDS011;37697;52.588;13.394;2024-03-29T15:26:57;2.00;;;1.00;;
51616;SDS011;37697;52.588;13.394;2024-03-29T15:32:23;1.30;;;0.70;;
51616;SDS011;37697;52.588;13.394;2024-03-29T15:37:48;2.40;;;0.70;;
51616;SDS011;37697;52.588;13.394;2024-03-29T15:43:14;1.50;;;0.80;;
51616;SDS011;37697;52.588;13.394;2024-03-29T15:48:39;2.10;;;0.80;;
51616;SDS011;37697;52.588;13.394;2024-03-29T15:54:05;6.20;;;1.00;;
51616;SDS011;37697;52.588;13.394;2024-03-29T15:59:30;2.20;;;0.70;;
51616;SDS011;37697;52.588;13.394;2024-03-29T16:04:55;1.50;;;0.50;;
51616;SDS011;37697;52.588;13.394;2024-03-29T16:10:20;1.70;;;0.60;;
51616;SDS011;37697;52.588;13.394;2024-03-29T16:15:46;2.00;;;0.90;;
51616;SDS011;37697;52.588;13.394;2024-03-29T16:21:11;1.60;;;0.70;;
51616;SDS011;37697;52.588;13.394;2024-03-29T16:26:21;2.80;;;0.90;;
51616;SDS011;37697;52.588;13.394;2024-03-29T16:31:29;1.40;;;0.70;;
51616;SDS011;37697;52.588;13.394;2024-03-29T16:36:42;1.40;;;0.70;;
51616;SDS011;37697;52.588;13.394;2024-03-29T16:41:49;2.10;;;0.80;;
51616;SDS011;37697;52.588;13.394;2024-03-29T16:47:06;1.60;;;0.80;;
51616;SDS011;37697;52.588;13.394;2024-03-29T16:52:31;1.50;;;0.60;;
51616;SDS011;37697;52.588;13.394;2024-03-29T16:57:41;2.50;;;0.70;;
51616;SDS011;37697;52.588;13.394;2024-03-29T17:02:56;1.60;;;0.60;;
51616;SDS011;37697;52.588;13.394;2024-03-29T17:08:21;2.60;;;0.90;;
51616;SDS011;37697;52.588;13.394;2024-03-29T17:13:29;2.10;;;0.80;;
51616;SDS011;37697;52.588;13.394;2024-03-29T17:18:42;1.90;;;0.90;;
51616;SDS011;37697;52.588;13.394;2024-03-29T17:23:50;1.30;;;0.70;;
51616;SDS011;37697;52.588;13.394;2024-03-29T17:28:58;2.00;;;0.70;;
51616;SDS011;37697;52.588;13.394;2024-03-29T17:34:06;2.30;;;1.00;;
51616;SDS011;37697;52.588;13.394;2024-03-29T17:39:15;1.90;;;1.20;;
51616;SDS011;37697;52.588;13.394;2024-03-29T17:44:25;1.80;;;0.90;;
51616;SDS011;37697;52.588;13.394;2024-03-29T17:49:40;2.50;;;1.20;;
51616;SDS011;37697;52.588;13.394;2024-03-29T17:54:47;2.10;;;1.20;;
51616;SDS011;37697;52.588;13.394;2024-03-29T17:59:52;2.60;;;0.90;;
51616;SDS011;37697;52.588;13.394;2024-03-29T18:05:00;1.60;;;1.00;;
51616;SDS011;37697;52.588;13.394;2024-03-29T18:10:18;2.30;;;1.00;;
51616;SDS011;37697;52.588;13.394;2024-03-29T18:15:26;1.30;;;0.90;;
51616;SDS011;37697;52.588;13.394;2024-03-29T18:20:31;3.60;;;1.60;;
51616;SDS011;37697;52.588;13.394;2024-03-29T18:25:57;3.20;;;1.40;;
51616;SDS011;37697;52.588;13.394;2024-03-29T18:31:22;2.50;;;1.30;;
51616;SDS011;37697;52.588;13.394;2024-03-29T18:36:48;2.10;;;1.20;;
51616;SDS011;37697;52.588;13.394;2024-03-29T18:42:13;2.40;;;1.20;;
51616;SDS011;37697;52.588;13.394;2024-03-29T18:47:38;1.80;;;1.30;;
51616;SDS011;37697;52.588;13.394;2024-03-29T18:53:04;2.30;;;1.30;;
51616;SDS011;37697;52.588;13.394;2024-03-29T18:58:29;4.00;;;1.20;;
51616;SDS011;37697;52.588;13.394;2024-03-29T19:03:55;5.30;;;1.70;;
51616;SDS011;37697;52.588;13.394;2024-03-29T19:09:18;3.00;;;1.60;;
51616;SDS011;37697;52.588;13.394;2024-03-29T19:14:45;2.90;;;1.30;;
51616;SDS011;37697;52.588;13.394;2024-03-29T19:20:11;2.80;;;1.20;;
51616;SDS011;37697;52.588;13.394;2024-03-29T19:25:36;2.30;;;1.20;;
51616;SDS011;37697;52.588;13.394;2024-03-29T19:30:52;2.00;;;1.10;;
51616;SDS011;37697;52.588;13.394;2024-03-29T19:36:16;4.20;;;1.20;;
51616;SDS011;37697;52.588;13.394;2024-03-29T19:41:41;2.20;;;1.00;;
51616;SDS011;37697;52.588;13.394;2024-03-29T19:46:49;2.10;;;1.20;;
51616;SDS011;37697;52.588;13.394;2024-03-29T19:51:58;1.90;;;1.00;;
51616;SDS011;37697;52.588;13.394;2024-03-29T19:57:16;2.10;;;0.90;;
51616;SDS011;37697;52.588;13.394;2024-03-29T20:02:42;3.00;;;1.40;;
51616;SDS011;37697;52.588;13.394;2024-03-29T20:07:57;1.70;;;1.00;;
51616;SDS011;37697;52.588;13.394;2024-03-29T20:13:11;1.20;;;0.80;;
51616;SDS011;37697;52.588;13.394;2024-03-29T20:18:20;2.50;;;0.90;;
51616;SDS011;37697;52.588;13.394;2024-03-29T20:23:25;1.30;;;0.70;;
51616;SDS011;37697;52.588;13.394;2024-03-29T20:28:33;2.20;;;0.80;;
51616;SDS011;37697;52.588;13.394;2024-03-29T20:33:41;1.20;;;0.80;;
51616;SDS011;37697;52.588;13.394;2024-03-29T20:39:06;1.50;;;1.00;;
51616;SDS011;37697;52.588;13.394;2024-03-29T20:44:21;2.30;;;1.20;;
51616;SDS011;37697;52.588;13.394;2024-03-29T20:49:26;2.00;;;0.90;;
51616;SDS011;37697;52.588;13.394;2024-03-29T20:54:45;1.50;;;0.90;;
51616;SDS011;37697;52.588;13.394;2024-03-29T20:59:54;1.90;;;0.90;;
51616;SDS011;37697;52.588;13.394;2024-03-29T21:05:02;1.10;;;0.80;;
51616;SDS011;37697;52.588;13.394;2024-03-29T21:10:27;2.30;;;1.00;;
51616;SDS011;37697;52.588;13.394;2024-03-29T21:15:35;1.80;;;1.00;;
51616;SDS011;37697;52.588;13.394;2024-03-29T21:20:44;2.30;;;1.20;;
51616;SDS011;37697;52.588;13.394;2024-03-29T21:26:09;2.10;;;1.10;;
51616;SDS011;37697;52.588;13.394;2024-03-29T21:31:33;1.30;;;0.90;;
51616;SDS011;37697;52.588;13.394;2024-03-29T21:36:43;2.60;;;1.00;;
51616;SDS011;37697;52.588;13.394;2024-03-29T21:41:51;1.50;;;0.90;;
51616;SDS011;37697;52.588;13.394;2024-03-29T21:47:17;1.60;;;0.80;;
51616;SDS011;37697;52.588;13.394;2024-03-29T21:52:27;2.30;;;1.00;;
51616;SDS011;37697;52.588;13.394;2024-03-29T21:57:45;1.60;;;0.90;;
51616;SDS011;37697;52.588;13.394;2024-03-29T22:03:00;1.40;;;0.90;;
51616;SDS011;37697;52.588;13.394;2024-03-29T22:08:25;2.50;;;1.50;;
51616;SDS011;37697;52.588;13.394;2024-03-29T22:13:41;3.90;;;2.20;;
51616;SDS011;37697;52.588;13.394;2024-03-29T22:18:57;4.40;;;2.80;;
51616;SDS011;37697;52.588;13.394;2024-03-29T22:24:22;4.00;;;2.50;;
51616;SDS011;37697;52.588;13.394;2024-03-29T22:29:48;4.00;;;2.10;;
51616;SDS011;37697;52.588;13.394;2024-03-29T22:35:06;4.60;;;2.40;;
51616;SDS011;37697;52.588;13.394;2024-03-29T22:40:32;7.80;;;3.90;;
51616;SDS011;37697;52.588;13.394;2024-03-29T22:45:50;6.60;;;3.00;;
51616;SDS011;37697;52.588;13.394;2024-03-29T22:51:15;6.50;;;3.60;;
51616;SDS011;37697;52.588;13.394;2024-03-29T22:56:41;5.40;;;3.30;;
51616;SDS011;37697;52.588;13.394;2024-03-29T23:02:06;4.60;;;2.50;;
51616;SDS011;37697;52.588;13.394;2024-03-29T23:07:32;5.20;;;2.90;;
51616;SDS011;37697;52.588;13.394;2024-03-29T23:12:57;4.10;;;2.40;;
51616;SDS011;37697;52.588;13.394;2024-03-29T23:18:22;5.00;;;3.00;;
51616;SDS011;37697;52.588;13.394;2024-03-29T23:23:49;4.60;;;2.30;;
51616;SDS011;37697;52.588;13.394;2024-03-29T23:29:15;5.00;;;3.10;;
51616;SDS011;37697;52.588;13.394;2024-03-29T23:34:30;4.60;;;2.70;;
51616;SDS011;37697;52.588;13.394;2024-03-29T23:39:55;4.20;;;2.90;;
51616;SDS011;37697;52.588;13.394;2024-03-29T23:45:21;5.10;;;3.50;;
51616;SDS011;37697;52.588;13.394;2024-03-29T23:50:51;4.90;;;3.10;;
51616;SDS011;37697;52.588;13.394;2024-03-29T23:56:17;4.50;;;2.60;;
